sensor_id;sensor_type;location;lat;lon;timestamp;P1;durP1;ratioP1;P2;durP2;ratioP2
62711;SDS011;48772;55.586;37.730;2023-09-12T00:00:28;37.08;;;19.45;;
62711;SDS011;48772;55.586;37.730;2023-09-12T00:02:54;31.92;;;18.80;;
62711;SDS011;48772;55.586;37.730;2023-09-12T00:05:20;28.90;;;17.85;;
62711;SDS011;48772;55.586;37.730;2023-09-12T00:07:46;38.28;;;20.30;;
62711;SDS011;48772;55.586;37.730;2023-09-12T00:10:12;36.80;;;21.10;;
62711;SDS011;48772;55.586;37.730;2023-09-12T00:12:38;37.03;;;21.95;;
62711;SDS011;48772;55.586;37.730;2023-09-12T00:15:04;32.50;;;19.33;;
62711;SDS011;48772;55.586;37.730;2023-09-12T00:17:30;34.92;;;19.42;;
62711;SDS011;48772;55.586;37.730;2023-09-12T00:19:56;31.27;;;19.67;;
62711;SDS011;48772;55.586;37.730;2023-09-12T00:22:22;36.92;;;18.10;;
62711;SDS011;48772;55.586;37.730;2023-09-12T00:24:48;38.75;;;21.00;;
62711;SDS011;48772;55.586;37.730;2023-09-12T00:27:14;38.47;;;19.80;;
62711;SDS011;48772;55.586;37.730;2023-09-12T00:29:40;33.58;;;19.23;;
62711;SDS011;48772;55.586;37.730;2023-09-12T00:32:06;39.50;;;20.75;;
62711;SDS011;48772;55.586;37.730;2023-09-12T00:41:25;33.95;;;18.95;;
62711;SDS011;48772;55.586;37.730;2023-09-12T00:43:51;40.13;;;20.23;;
62711;SDS011;48772;55.586;37.730;2023-09-12T00:46:25;35.25;;;20.20;;
62711;SDS011;48772;55.586;37.730;2023-09-12T00:49:21;36.73;;;19.50;;
62711;SDS011;48772;55.586;37.730;2023-09-12T00:51:48;36.78;;;20.48;;
62711;SDS011;48772;55.586;37.730;2023-09-12T00:54:15;36.03;;;20.42;;
62711;SDS011;48772;55.586;37.730;2023-09-12T00:56:42;33.90;;;17.92;;
62711;SDS011;48772;55.586;37.730;2023-09-12T00:59:08;38.15;;;20.27;;
62711;SDS011;48772;55.586;37.730;2023-09-12T01:01:35;35.90;;;20.40;;
62711;SDS011;48772;55.586;37.730;2023-09-12T01:04:01;35.25;;;16.70;;
62711;SDS011;48772;55.586;37.730;2023-09-12T01:06:28;37.95;;;20.98;;
62711;SDS011;48772;55.586;37.730;2023-09-12T01:08:56;38.58;;;19.90;;
62711;SDS011;48772;55.586;37.730;2023-09-12T01:11:22;38.83;;;21.27;;
62711;SDS011;48772;55.586;37.730;2023-09-12T01:13:48;39.78;;;20.88;;
62711;SDS011;48772;55.586;37.730;2023-09-12T01:16:14;51.25;;;22.08;;
62711;SDS011;48772;55.586;37.730;2023-09-12T01:18:40;51.60;;;21.40;;
62711;SDS011;48772;55.586;37.730;2023-09-12T01:21:19;41.00;;;21.42;;
62711;SDS011;48772;55.586;37.730;2023-09-12T01:29:39;45.10;;;21.10;;
62711;SDS011;48772;55.586;37.730;2023-09-12T01:35:23;48.78;;;21.42;;
62711;SDS011;48772;55.586;37.730;2023-09-12T01:37:49;43.08;;;20.85;;
62711;SDS011;48772;55.586;37.730;2023-09-12T01:40:15;45.38;;;21.52;;
62711;SDS011;48772;55.586;37.730;2023-09-12T01:42:45;44.67;;;20.10;;
62711;SDS011;48772;55.586;37.730;2023-09-12T01:45:16;42.15;;;21.70;;
62711;SDS011;48772;55.586;37.730;2023-09-12T01:47:43;41.35;;;20.42;;
62711;SDS011;48772;55.586;37.730;2023-09-12T01:50:11;46.78;;;20.73;;
62711;SDS011;48772;55.586;37.730;2023-09-12T01:52:38;42.20;;;20.30;;
62711;SDS011;48772;55.586;37.730;2023-09-12T01:55:06;55.45;;;21.30;;
62711;SDS011;48772;55.586;37.730;2023-09-12T01:57:35;41.58;;;21.42;;
62711;SDS011;48772;55.586;37.730;2023-09-12T02:00:02;35.65;;;20.55;;
62711;SDS011;48772;55.586;37.730;2023-09-12T02:02:32;40.58;;;21.10;;
62711;SDS011;48772;55.586;37.730;2023-09-12T02:05:03;36.30;;;20.23;;
62711;SDS011;48772;55.586;37.730;2023-09-12T02:07:45;39.65;;;21.02;;
62711;SDS011;48772;55.586;37.730;2023-09-12T02:10:13;41.92;;;21.48;;
62711;SDS011;48772;55.586;37.730;2023-09-12T02:12:39;42.47;;;21.13;;
62711;SDS011;48772;55.586;37.730;2023-09-12T02:15:07;40.15;;;20.85;;
62711;SDS011;48772;55.586;37.730;2023-09-12T02:17:34;41.78;;;21.73;;
62711;SDS011;48772;55.586;37.730;2023-09-12T02:20:20;44.80;;;22.13;;
62711;SDS011;48772;55.586;37.730;2023-09-12T02:22:46;43.38;;;22.10;;
62711;SDS011;48772;55.586;37.730;2023-09-12T02:25:12;44.15;;;23.33;;
62711;SDS011;48772;55.586;37.730;2023-09-12T02:27:39;43.55;;;21.30;;
62711;SDS011;48772;55.586;37.730;2023-09-12T02:30:05;44.72;;;21.33;;
62711;SDS011;48772;55.586;37.730;2023-09-12T02:32:34;43.80;;;22.27;;
62711;SDS011;48772;55.586;37.730;2023-09-12T02:35:01;43.53;;;21.70;;
62711;SDS011;48772;55.586;37.730;2023-09-12T02:37:29;41.17;;;22.52;;
62711;SDS011;48772;55.586;37.730;2023-09-12T02:39:55;44.85;;;22.35;;
62711;SDS011;48772;55.586;37.730;2023-09-12T02:42:21;45.17;;;22.77;;
62711;SDS011;48772;55.586;37.730;2023-09-12T02:44:48;46.50;;;22.75;;
62711;SDS011;48772;55.586;37.730;2023-09-12T02:47:14;47.92;;;23.80;;
62711;SDS011;48772;55.586;37.730;2023-09-12T02:49:40;43.50;;;22.17;;
62711;SDS011;48772;55.586;37.730;2023-09-12T02:52:06;45.08;;;23.30;;
62711;SDS011;48772;55.586;37.730;2023-09-12T02:54:32;44.63;;;23.23;;
62711;SDS011;48772;55.586;37.730;2023-09-12T02:56:58;47.15;;;23.10;;
62711;SDS011;48772;55.586;37.730;2023-09-12T02:59:24;48.55;;;23.42;;
62711;SDS011;48772;55.586;37.730;2023-09-12T03:01:50;44.67;;;22.67;;
62711;SDS011;48772;55.586;37.730;2023-09-12T03:04:16;43.83;;;22.45;;
62711;SDS011;48772;55.586;37.730;2023-09-12T03:06:42;41.63;;;22.00;;
62711;SDS011;48772;55.586;37.730;2023-09-12T03:09:09;44.67;;;23.08;;
62711;SDS011;48772;55.586;37.730;2023-09-12T03:11:36;40.47;;;21.95;;
62711;SDS011;48772;55.586;37.730;2023-09-12T03:14:02;45.45;;;21.98;;
62711;SDS011;48772;55.586;37.730;2023-09-12T03:23:25;43.33;;;21.60;;
62711;SDS011;48772;55.586;37.730;2023-09-12T03:25:52;38.40;;;20.92;;
62711;SDS011;48772;55.586;37.730;2023-09-12T03:32:25;43.70;;;23.40;;
62711;SDS011;48772;55.586;37.730;2023-09-12T03:34:51;43.22;;;21.70;;
62711;SDS011;48772;55.586;37.730;2023-09-12T03:37:17;42.05;;;22.77;;
62711;SDS011;48772;55.586;37.730;2023-09-12T03:39:47;46.17;;;23.50;;
62711;SDS011;48772;55.586;37.730;2023-09-12T03:42:13;41.72;;;22.73;;
62711;SDS011;48772;55.586;37.730;2023-09-12T03:44:39;43.53;;;22.58;;
62711;SDS011;48772;55.586;37.730;2023-09-12T03:50:46;40.97;;;21.17;;
62711;SDS011;48772;55.586;37.730;2023-09-12T03:53:13;45.90;;;22.58;;
62711;SDS011;48772;55.586;37.730;2023-09-12T03:55:40;43.40;;;21.83;;
62711;SDS011;48772;55.586;37.730;2023-09-12T03:58:06;38.58;;;21.23;;
62711;SDS011;48772;55.586;37.730;2023-09-12T04:00:33;39.78;;;21.70;;
62711;SDS011;48772;55.586;37.730;2023-09-12T04:02:59;37.55;;;20.73;;
62711;SDS011;48772;55.586;37.730;2023-09-12T04:05:26;37.72;;;21.05;;
62711;SDS011;48772;55.586;37.730;2023-09-12T04:07:52;39.20;;;20.52;;
62711;SDS011;48772;55.586;37.730;2023-09-12T04:10:19;40.78;;;21.23;;
62711;SDS011;48772;55.586;37.730;2023-09-12T04:12:46;43.22;;;20.95;;
62711;SDS011;48772;55.586;37.730;2023-09-12T04:15:12;40.92;;;20.20;;
62711;SDS011;48772;55.586;37.730;2023-09-12T04:17:38;40.15;;;19.75;;
62711;SDS011;48772;55.586;37.730;2023-09-12T04:20:05;44.60;;;21.20;;
62711;SDS011;48772;55.586;37.730;2023-09-12T04:22:32;34.33;;;20.08;;
62711;SDS011;48772;55.586;37.730;2023-09-12T04:24:59;35.33;;;19.08;;
62711;SDS011;48772;55.586;37.730;2023-09-12T04:27:26;36.10;;;20.25;;
62711;SDS011;48772;55.586;37.730;2023-09-12T04:29:52;36.50;;;20.25;;
62711;SDS011;48772;55.586;37.730;2023-09-12T04:32:19;40.10;;;19.27;;
62711;SDS011;48772;55.586;37.730;2023-09-12T04:34:55;31.92;;;18.15;;
62711;SDS011;48772;55.586;37.730;2023-09-12T04:37:21;30.42;;;18.60;;
62711;SDS011;48772;55.586;37.730;2023-09-12T04:39:48;32.58;;;19.20;;
62711;SDS011;48772;55.586;37.730;2023-09-12T04:42:14;28.98;;;18.38;;
62711;SDS011;48772;55.586;37.730;2023-09-12T04:44:40;29.50;;;18.05;;
62711;SDS011;48772;55.586;37.730;2023-09-12T04:47:07;33.25;;;18.17;;
62711;SDS011;48772;55.586;37.730;2023-09-12T04:49:35;32.22;;;17.45;;
62711;SDS011;48772;55.586;37.730;2023-09-12T04:52:01;32.35;;;18.27;;
62711;SDS011;48772;55.586;37.730;2023-09-12T04:54:28;28.70;;;17.33;;
62711;SDS011;48772;55.586;37.730;2023-09-12T04:56:54;30.15;;;17.52;;
62711;SDS011;48772;55.586;37.730;2023-09-12T04:59:21;27.30;;;16.80;;
62711;SDS011;48772;55.586;37.730;2023-09-12T05:01:48;30.17;;;17.45;;
62711;SDS011;48772;55.586;37.730;2023-09-12T05:04:17;27.98;;;17.20;;
62711;SDS011;48772;55.586;37.730;2023-09-12T05:06:43;35.13;;;17.42;;
62711;SDS011;48772;55.586;37.730;2023-09-12T05:09:09;29.48;;;17.00;;
62711;SDS011;48772;55.586;37.730;2023-09-12T05:11:36;26.48;;;16.30;;
62711;SDS011;48772;55.586;37.730;2023-09-12T05:14:02;26.85;;;16.52;;
62711;SDS011;48772;55.586;37.730;2023-09-12T05:16:29;29.98;;;17.25;;
62711;SDS011;48772;55.586;37.730;2023-09-12T05:18:56;26.60;;;15.80;;
62711;SDS011;48772;55.586;37.730;2023-09-12T05:21:22;26.33;;;16.60;;
62711;SDS011;48772;55.586;37.730;2023-09-12T05:23:48;30.08;;;16.35;;
62711;SDS011;48772;55.586;37.730;2023-09-12T05:26:14;29.52;;;16.90;;
62711;SDS011;48772;55.586;37.730;2023-09-12T05:28:41;33.58;;;18.67;;
62711;SDS011;48772;55.586;37.730;2023-09-12T05:31:08;31.80;;;19.95;;
62711;SDS011;48772;55.586;37.730;2023-09-12T05:33:35;31.10;;;19.88;;
62711;SDS011;48772;55.586;37.730;2023-09-12T05:36:01;26.95;;;18.60;;
62711;SDS011;48772;55.586;37.730;2023-09-12T05:38:28;29.35;;;18.52;;
62711;SDS011;48772;55.586;37.730;2023-09-12T05:40:55;30.95;;;18.55;;
62711;SDS011;48772;55.586;37.730;2023-09-12T05:43:22;30.02;;;19.52;;
62711;SDS011;48772;55.586;37.730;2023-09-12T05:45:48;33.85;;;19.25;;
62711;SDS011;48772;55.586;37.730;2023-09-12T05:48:14;31.27;;;19.23;;
62711;SDS011;48772;55.586;37.730;2023-09-12T05:50:41;29.90;;;19.48;;
62711;SDS011;48772;55.586;37.730;2023-09-12T05:53:07;35.75;;;19.30;;
62711;SDS011;48772;55.586;37.730;2023-09-12T05:55:35;31.98;;;19.50;;
62711;SDS011;48772;55.586;37.730;2023-09-12T05:58:02;26.17;;;18.48;;
62711;SDS011;48772;55.586;37.730;2023-09-12T06:00:31;33.28;;;20.15;;
62711;SDS011;48772;55.586;37.730;2023-09-12T06:02:58;29.70;;;18.73;;
62711;SDS011;48772;55.586;37.730;2023-09-12T06:05:24;25.00;;;16.67;;
62711;SDS011;48772;55.586;37.730;2023-09-12T06:07:50;24.20;;;16.58;;
62711;SDS011;48772;55.586;37.730;2023-09-12T06:10:17;24.23;;;15.80;;
62711;SDS011;48772;55.586;37.730;2023-09-12T06:12:44;20.67;;;15.23;;
62711;SDS011;48772;55.586;37.730;2023-09-12T06:15:11;23.33;;;15.35;;
62711;SDS011;48772;55.586;37.730;2023-09-12T06:17:37;29.02;;;16.98;;
62711;SDS011;48772;55.586;37.730;2023-09-12T06:20:03;21.67;;;15.50;;
62711;SDS011;48772;55.586;37.730;2023-09-12T06:22:34;28.88;;;16.35;;
62711;SDS011;48772;55.586;37.730;2023-09-12T06:25:01;25.60;;;16.00;;
62711;SDS011;48772;55.586;37.730;2023-09-12T06:27:32;24.25;;;14.75;;
62711;SDS011;48772;55.586;37.730;2023-09-12T06:29:58;22.70;;;15.68;;
62711;SDS011;48772;55.586;37.730;2023-09-12T06:32:24;28.75;;;16.50;;
62711;SDS011;48772;55.586;37.730;2023-09-12T06:34:50;25.90;;;14.95;;
62711;SDS011;48772;55.586;37.730;2023-09-12T06:37:16;25.98;;;15.27;;
62711;SDS011;48772;55.586;37.730;2023-09-12T06:39:43;23.15;;;14.75;;
62711;SDS011;48772;55.586;37.730;2023-09-12T06:42:09;20.60;;;14.70;;
62711;SDS011;48772;55.586;37.730;2023-09-12T06:44:36;21.05;;;13.95;;
62711;SDS011;48772;55.586;37.730;2023-09-12T06:47:03;23.55;;;15.05;;
62711;SDS011;48772;55.586;37.730;2023-09-12T06:49:30;23.23;;;15.10;;
62711;SDS011;48772;55.586;37.730;2023-09-12T06:52:01;25.17;;;14.77;;
62711;SDS011;48772;55.586;37.730;2023-09-12T06:54:28;27.17;;;15.20;;
62711;SDS011;48772;55.586;37.730;2023-09-12T06:56:54;21.48;;;14.10;;
62711;SDS011;48772;55.586;37.730;2023-09-12T06:59:20;25.08;;;15.57;;
62711;SDS011;48772;55.586;37.730;2023-09-12T07:01:46;20.88;;;15.00;;
62711;SDS011;48772;55.586;37.730;2023-09-12T07:04:12;22.20;;;15.20;;
62711;SDS011;48772;55.586;37.730;2023-09-12T07:06:38;22.55;;;15.88;;
62711;SDS011;48772;55.586;37.730;2023-09-12T07:09:04;22.15;;;15.25;;
62711;SDS011;48772;55.586;37.730;2023-09-12T07:11:30;23.02;;;15.85;;
62711;SDS011;48772;55.586;37.730;2023-09-12T07:13:56;24.73;;;16.65;;
62711;SDS011;48772;55.586;37.730;2023-09-12T07:16:22;24.20;;;17.52;;
62711;SDS011;48772;55.586;37.730;2023-09-12T07:18:48;23.83;;;16.45;;
62711;SDS011;48772;55.586;37.730;2023-09-12T07:21:16;21.60;;;15.48;;
62711;SDS011;48772;55.586;37.730;2023-09-12T07:23:42;22.38;;;15.63;;
62711;SDS011;48772;55.586;37.730;2023-09-12T07:26:11;26.40;;;16.08;;
62711;SDS011;48772;55.586;37.730;2023-09-12T07:28:39;23.33;;;15.85;;
62711;SDS011;48772;55.586;37.730;2023-09-12T07:31:05;22.90;;;16.27;;
62711;SDS011;48772;55.586;37.730;2023-09-12T07:33:32;26.65;;;16.25;;
62711;SDS011;48772;55.586;37.730;2023-09-12T07:35:59;23.00;;;16.08;;
62711;SDS011;48772;55.586;37.730;2023-09-12T07:38:29;20.55;;;16.33;;
62711;SDS011;48772;55.586;37.730;2023-09-12T07:41:00;22.33;;;17.70;;
62711;SDS011;48772;55.586;37.730;2023-09-12T07:43:29;24.55;;;18.17;;
62711;SDS011;48772;55.586;37.730;2023-09-12T07:45:58;22.38;;;18.70;;
62711;SDS011;48772;55.586;37.730;2023-09-12T07:48:24;25.52;;;17.65;;
62711;SDS011;48772;55.586;37.730;2023-09-12T07:50:50;26.83;;;18.98;;
62711;SDS011;48772;55.586;37.730;2023-09-12T07:53:17;23.92;;;18.08;;
62711;SDS011;48772;55.586;37.730;2023-09-12T07:55:43;28.98;;;18.75;;
62711;SDS011;48772;55.586;37.730;2023-09-12T07:58:16;22.95;;;18.15;;
62711;SDS011;48772;55.586;37.730;2023-09-12T08:00:46;24.50;;;17.83;;
62711;SDS011;48772;55.586;37.730;2023-09-12T08:03:12;21.25;;;17.42;;
62711;SDS011;48772;55.586;37.730;2023-09-12T08:05:39;21.83;;;16.58;;
62711;SDS011;48772;55.586;37.730;2023-09-12T08:08:05;22.83;;;17.80;;
62711;SDS011;48772;55.586;37.730;2023-09-12T08:10:32;25.92;;;17.60;;
62711;SDS011;48772;55.586;37.730;2023-09-12T08:12:58;27.02;;;16.95;;
62711;SDS011;48772;55.586;37.730;2023-09-12T08:15:28;19.55;;;15.38;;
62711;SDS011;48772;55.586;37.730;2023-09-12T08:17:56;20.20;;;14.05;;
62711;SDS011;48772;55.586;37.730;2023-09-12T08:20:22;21.80;;;14.57;;
62711;SDS011;48772;55.586;37.730;2023-09-12T08:22:48;25.27;;;15.10;;
62711;SDS011;48772;55.586;37.730;2023-09-12T08:25:15;51.03;;;14.70;;
62711;SDS011;48772;55.586;37.730;2023-09-12T08:27:41;20.73;;;15.13;;
62711;SDS011;48772;55.586;37.730;2023-09-12T08:30:09;19.48;;;15.32;;
62711;SDS011;48772;55.586;37.730;2023-09-12T08:32:38;27.65;;;15.52;;
62711;SDS011;48772;55.586;37.730;2023-09-12T08:35:12;23.55;;;15.93;;
62711;SDS011;48772;55.586;37.730;2023-09-12T08:37:39;24.02;;;15.73;;
62711;SDS011;48772;55.586;37.730;2023-09-12T08:40:07;22.58;;;14.65;;
62711;SDS011;48772;55.586;37.730;2023-09-12T08:42:37;22.25;;;13.95;;
62711;SDS011;48772;55.586;37.730;2023-09-12T08:45:10;20.30;;;13.35;;
62711;SDS011;48772;55.586;37.730;2023-09-12T08:47:43;20.73;;;13.40;;
62711;SDS011;48772;55.586;37.730;2023-09-12T08:50:11;18.25;;;12.35;;
62711;SDS011;48772;55.586;37.730;2023-09-12T08:52:39;18.63;;;12.20;;
62711;SDS011;48772;55.586;37.730;2023-09-12T08:55:09;17.52;;;12.65;;
62711;SDS011;48772;55.586;37.730;2023-09-12T08:57:40;21.23;;;12.77;;
62711;SDS011;48772;55.586;37.730;2023-09-12T09:00:08;15.48;;;12.30;;
62711;SDS011;48772;55.586;37.730;2023-09-12T09:02:39;18.92;;;13.05;;
62711;SDS011;48772;55.586;37.730;2023-09-12T09:05:07;16.80;;;11.10;;
62711;SDS011;48772;55.586;37.730;2023-09-12T09:07:40;22.73;;;11.35;;
62711;SDS011;48772;55.586;37.730;2023-09-12T09:10:14;14.20;;;9.93;;
62711;SDS011;48772;55.586;37.730;2023-09-12T09:12:42;18.42;;;11.43;;
62711;SDS011;48772;55.586;37.730;2023-09-12T09:15:20;14.23;;;10.95;;
62711;SDS011;48772;55.586;37.730;2023-09-12T09:17:49;15.65;;;11.07;;
62711;SDS011;48772;55.586;37.730;2023-09-12T09:23:04;17.50;;;9.88;;
62711;SDS011;48772;55.586;37.730;2023-09-12T09:25:32;12.27;;;8.95;;
62711;SDS011;48772;55.586;37.730;2023-09-12T09:28:01;10.15;;;8.30;;
62711;SDS011;48772;55.586;37.730;2023-09-12T09:30:47;12.43;;;7.60;;
62711;SDS011;48772;55.586;37.730;2023-09-12T09:33:18;13.27;;;7.93;;
62711;SDS011;48772;55.586;37.730;2023-09-12T09:35:49;11.10;;;7.53;;
62711;SDS011;48772;55.586;37.730;2023-09-12T09:38:18;12.63;;;6.60;;
62711;SDS011;48772;55.586;37.730;2023-09-12T09:40:45;9.93;;;7.43;;
62711;SDS011;48772;55.586;37.730;2023-09-12T09:43:11;9.43;;;7.13;;
62711;SDS011;48772;55.586;37.730;2023-09-12T09:45:46;19.52;;;8.00;;
62711;SDS011;48772;55.586;37.730;2023-09-12T09:48:19;14.00;;;8.47;;
62711;SDS011;48772;55.586;37.730;2023-09-12T09:50:46;9.13;;;7.57;;
62711;SDS011;48772;55.586;37.730;2023-09-12T09:53:31;11.48;;;7.97;;
62711;SDS011;48772;55.586;37.730;2023-09-12T09:56:14;11.35;;;7.60;;
62711;SDS011;48772;55.586;37.730;2023-09-12T09:58:47;11.77;;;6.97;;
62711;SDS011;48772;55.586;37.730;2023-09-12T10:01:21;11.43;;;7.60;;
62711;SDS011;48772;55.586;37.730;2023-09-12T10:03:49;7.97;;;6.35;;
62711;SDS011;48772;55.586;37.730;2023-09-12T10:06:16;7.82;;;6.60;;
62711;SDS011;48772;55.586;37.730;2023-09-12T10:08:44;8.57;;;6.50;;
62711;SDS011;48772;55.586;37.730;2023-09-12T10:11:13;9.32;;;6.75;;
62711;SDS011;48772;55.586;37.730;2023-09-12T10:13:43;8.88;;;7.20;;
62711;SDS011;48772;55.586;37.730;2023-09-12T10:16:15;10.02;;;6.65;;
62711;SDS011;48772;55.586;37.730;2023-09-12T10:21:32;9.13;;;5.60;;
62711;SDS011;48772;55.586;37.730;2023-09-12T10:23:59;6.47;;;5.70;;
62711;SDS011;48772;55.586;37.730;2023-09-12T10:26:30;6.53;;;5.57;;
62711;SDS011;48772;55.586;37.730;2023-09-12T10:28:57;7.95;;;5.32;;
62711;SDS011;48772;55.586;37.730;2023-09-12T10:31:25;8.70;;;5.57;;
62711;SDS011;48772;55.586;37.730;2023-09-12T10:33:53;6.97;;;5.18;;
62711;SDS011;48772;55.586;37.730;2023-09-12T10:36:19;7.68;;;5.00;;
62711;SDS011;48772;55.586;37.730;2023-09-12T10:38:47;10.07;;;5.50;;
62711;SDS011;48772;55.586;37.730;2023-09-12T10:41:14;6.35;;;4.53;;
62711;SDS011;48772;55.586;37.730;2023-09-12T10:43:42;6.05;;;4.57;;
62711;SDS011;48772;55.586;37.730;2023-09-12T10:46:15;6.90;;;4.40;;
62711;SDS011;48772;55.586;37.730;2023-09-12T10:48:41;10.45;;;5.28;;
62711;SDS011;48772;55.586;37.730;2023-09-12T10:51:07;6.22;;;4.68;;
62711;SDS011;48772;55.586;37.730;2023-09-12T10:53:35;6.88;;;5.43;;
62711;SDS011;48772;55.586;37.730;2023-09-12T10:56:18;8.35;;;5.30;;
62711;SDS011;48772;55.586;37.730;2023-09-12T11:01:32;7.95;;;5.70;;
62711;SDS011;48772;55.586;37.730;2023-09-12T11:06:46;9.02;;;5.18;;
62711;SDS011;48772;55.586;37.730;2023-09-12T11:09:22;7.40;;;4.93;;
62711;SDS011;48772;55.586;37.730;2023-09-12T11:12:02;5.22;;;4.15;;
62711;SDS011;48772;55.586;37.730;2023-09-12T11:14:29;8.57;;;4.43;;
62711;SDS011;48772;55.586;37.730;2023-09-12T11:19:46;11.77;;;7.90;;
62711;SDS011;48772;55.586;37.730;2023-09-12T11:24:54;6.57;;;5.45;;
62711;SDS011;48772;55.586;37.730;2023-09-12T11:27:22;9.05;;;6.90;;
62711;SDS011;48772;55.586;37.730;2023-09-12T11:34:20;8.05;;;5.35;;
62711;SDS011;48772;55.586;37.730;2023-09-12T11:36:46;5.43;;;4.80;;
62711;SDS011;48772;55.586;37.730;2023-09-12T11:39:23;8.55;;;5.55;;
62711;SDS011;48772;55.586;37.730;2023-09-12T11:41:53;6.53;;;5.07;;
62711;SDS011;48772;55.586;37.730;2023-09-12T11:44:35;11.38;;;5.30;;
62711;SDS011;48772;55.586;37.730;2023-09-12T11:47:02;8.40;;;5.15;;
62711;SDS011;48772;55.586;37.730;2023-09-12T11:58:16;9.00;;;7.88;;
62711;SDS011;48772;55.586;37.730;2023-09-12T12:00:51;5.00;;;4.25;;
62711;SDS011;48772;55.586;37.730;2023-09-12T12:03:19;8.70;;;4.68;;
62711;SDS011;48772;55.586;37.730;2023-09-12T12:05:47;10.25;;;4.95;;
62711;SDS011;48772;55.586;37.730;2023-09-12T12:08:14;6.82;;;4.47;;
62711;SDS011;48772;55.586;37.730;2023-09-12T12:10:49;8.15;;;4.40;;
62711;SDS011;48772;55.586;37.730;2023-09-12T12:13:17;6.30;;;4.90;;
62711;SDS011;48772;55.586;37.730;2023-09-12T12:15:44;6.78;;;4.38;;
62711;SDS011;48772;55.586;37.730;2023-09-12T12:18:10;6.75;;;4.70;;
62711;SDS011;48772;55.586;37.730;2023-09-12T12:20:36;4.72;;;4.10;;
62711;SDS011;48772;55.586;37.730;2023-09-12T12:23:02;6.97;;;4.45;;
62711;SDS011;48772;55.586;37.730;2023-09-12T12:25:31;4.78;;;4.05;;
62711;SDS011;48772;55.586;37.730;2023-09-12T12:28:00;4.35;;;3.95;;
62711;SDS011;48772;55.586;37.730;2023-09-12T12:30:31;6.10;;;4.78;;
62711;SDS011;48772;55.586;37.730;2023-09-12T12:33:00;6.88;;;5.03;;
62711;SDS011;48772;55.586;37.730;2023-09-12T12:35:28;8.40;;;4.88;;
62711;SDS011;48772;55.586;37.730;2023-09-12T12:37:54;8.82;;;5.07;;
62711;SDS011;48772;55.586;37.730;2023-09-12T12:40:22;4.97;;;4.47;;
62711;SDS011;48772;55.586;37.730;2023-09-12T12:47:21;7.88;;;4.65;;
62711;SDS011;48772;55.586;37.730;2023-09-12T12:49:52;7.53;;;4.95;;
62711;SDS011;48772;55.586;37.730;2023-09-12T12:52:24;6.10;;;4.25;;
62711;SDS011;48772;55.586;37.730;2023-09-12T12:54:51;5.37;;;4.43;;
62711;SDS011;48772;55.586;37.730;2023-09-12T12:57:20;5.70;;;5.10;;
62711;SDS011;48772;55.586;37.730;2023-09-12T12:59:48;8.73;;;5.25;;
62711;SDS011;48772;55.586;37.730;2023-09-12T13:02:17;6.65;;;5.25;;
62711;SDS011;48772;55.586;37.730;2023-09-12T13:04:46;6.35;;;5.35;;
62711;SDS011;48772;55.586;37.730;2023-09-12T13:07:13;5.97;;;5.10;;
62711;SDS011;48772;55.586;37.730;2023-09-12T13:09:45;8.73;;;5.20;;
62711;SDS011;48772;55.586;37.730;2023-09-12T13:12:13;11.73;;;5.05;;
62711;SDS011;48772;55.586;37.730;2023-09-12T13:14:40;8.57;;;5.63;;
62711;SDS011;48772;55.586;37.730;2023-09-12T13:17:07;8.27;;;5.68;;
62711;SDS011;48772;55.586;37.730;2023-09-12T13:19:40;6.85;;;5.40;;
62711;SDS011;48772;55.586;37.730;2023-09-12T13:22:06;8.35;;;5.05;;
62711;SDS011;48772;55.586;37.730;2023-09-12T13:24:32;8.73;;;5.25;;
62711;SDS011;48772;55.586;37.730;2023-09-12T13:26:58;6.50;;;4.60;;
62711;SDS011;48772;55.586;37.730;2023-09-12T13:29:24;10.15;;;5.43;;
62711;SDS011;48772;55.586;37.730;2023-09-12T13:31:52;7.15;;;4.78;;
62711;SDS011;48772;55.586;37.730;2023-09-12T13:34:18;6.38;;;4.50;;
62711;SDS011;48772;55.586;37.730;2023-09-12T13:36:44;8.77;;;5.05;;
62711;SDS011;48772;55.586;37.730;2023-09-12T13:39:10;7.20;;;4.90;;
62711;SDS011;48772;55.586;37.730;2023-09-12T13:41:38;7.85;;;4.60;;
62711;SDS011;48772;55.586;37.730;2023-09-12T13:44:05;9.85;;;4.82;;
62711;SDS011;48772;55.586;37.730;2023-09-12T13:46:31;6.25;;;4.93;;
62711;SDS011;48772;55.586;37.730;2023-09-12T13:48:57;9.23;;;5.05;;
62711;SDS011;48772;55.586;37.730;2023-09-12T13:51:29;6.88;;;5.05;;
62711;SDS011;48772;55.586;37.730;2023-09-12T13:53:55;8.27;;;5.10;;
62711;SDS011;48772;55.586;37.730;2023-09-12T13:56:21;8.82;;;4.75;;
62711;SDS011;48772;55.586;37.730;2023-09-12T13:58:47;10.05;;;4.93;;
62711;SDS011;48772;55.586;37.730;2023-09-12T14:01:13;8.40;;;4.80;;
62711;SDS011;48772;55.586;37.730;2023-09-12T14:03:40;5.88;;;4.45;;
62711;SDS011;48772;55.586;37.730;2023-09-12T14:06:05;6.93;;;4.63;;
62711;SDS011;48772;55.586;37.730;2023-09-12T14:08:31;6.30;;;4.63;;
62711;SDS011;48772;55.586;37.730;2023-09-12T14:10:57;6.53;;;4.55;;
62711;SDS011;48772;55.586;37.730;2023-09-12T14:13:23;8.23;;;4.55;;
62711;SDS011;48772;55.586;37.730;2023-09-12T14:15:49;6.35;;;4.55;;
62711;SDS011;48772;55.586;37.730;2023-09-12T14:18:16;6.70;;;4.43;;
62711;SDS011;48772;55.586;37.730;2023-09-12T14:20:42;7.65;;;4.15;;
62711;SDS011;48772;55.586;37.730;2023-09-12T14:23:08;4.25;;;3.70;;
62711;SDS011;48772;55.586;37.730;2023-09-12T14:25:34;4.07;;;3.67;;
62711;SDS011;48772;55.586;37.730;2023-09-12T14:28:00;7.25;;;4.05;;
62711;SDS011;48772;55.586;37.730;2023-09-12T14:30:26;4.55;;;3.97;;
62711;SDS011;48772;55.586;37.730;2023-09-12T14:35:25;4.78;;;3.78;;
62711;SDS011;48772;55.586;37.730;2023-09-12T14:37:51;6.35;;;4.30;;
62711;SDS011;48772;55.586;37.730;2023-09-12T14:40:17;7.88;;;4.70;;
62711;SDS011;48772;55.586;37.730;2023-09-12T14:42:44;5.80;;;4.20;;
62711;SDS011;48772;55.586;37.730;2023-09-12T14:45:13;7.57;;;4.75;;
62711;SDS011;48772;55.586;37.730;2023-09-12T14:47:39;5.53;;;4.03;;
62711;SDS011;48772;55.586;37.730;2023-09-12T14:50:05;6.80;;;4.22;;
62711;SDS011;48772;55.586;37.730;2023-09-12T14:52:32;5.43;;;4.10;;
62711;SDS011;48772;55.586;37.730;2023-09-12T14:55:00;6.18;;;4.43;;
62711;SDS011;48772;55.586;37.730;2023-09-12T14:57:29;5.45;;;3.92;;
62711;SDS011;48772;55.586;37.730;2023-09-12T15:00:02;11.25;;;4.45;;
62711;SDS011;48772;55.586;37.730;2023-09-12T15:02:30;6.15;;;4.40;;
62711;SDS011;48772;55.586;37.730;2023-09-12T15:05:01;7.00;;;4.60;;
62711;SDS011;48772;55.586;37.730;2023-09-12T15:07:37;9.85;;;4.80;;
62711;SDS011;48772;55.586;37.730;2023-09-12T15:10:03;7.38;;;4.72;;
62711;SDS011;48772;55.586;37.730;2023-09-12T15:12:30;5.28;;;4.78;;
62711;SDS011;48772;55.586;37.730;2023-09-12T15:14:56;7.57;;;4.03;;
62711;SDS011;48772;55.586;37.730;2023-09-12T15:17:22;7.53;;;4.18;;
62711;SDS011;48772;55.586;37.730;2023-09-12T15:19:50;6.32;;;4.40;;
62711;SDS011;48772;55.586;37.730;2023-09-12T15:22:17;8.10;;;4.57;;
62711;SDS011;48772;55.586;37.730;2023-09-12T15:24:43;8.20;;;4.97;;
62711;SDS011;48772;55.586;37.730;2023-09-12T15:27:09;8.43;;;4.35;;
62711;SDS011;48772;55.586;37.730;2023-09-12T15:29:35;10.70;;;5.10;;